Hastings, NE (68901)

4:45 PM CDT on September 01, 2014 (GMT -0500)
West 12th Street | Change Station
CLOSE
Current Station
Personal Weather Station
Location: Hastings, NE
Elevation: 1934 ft
Nearby Weather Stations

Elev 1934 ft 40.60 °N, 98.40 °W | Updated 14 seconds ago

Mostly Cloudy
Mostly Cloudy
71.7 °F
Feels Like 75 °F
N
0.0
Wind Variable Wind from NNW
Gusts 0.0 mph

Today
High -- | Low -- °F
--% Chance of Precip.
Yesterday
High -- | Low -- °F
Precip. -- in
7:00 AM 8:05 PM
Waxing Crescent, 44% visible
Pressure 29.90 in
Visibility 10.0 miles
Clouds Mostly Cloudy 12000 ft
Heat Index 75 °F
Dew Point 60 °F
Humidity 66%
Rainfall 0.00 in
Snow Depth Not available.
UV 4 out of 12
Pollen 8.20 out of 12
Air Quality Not available.
Flu Activity Not available.
METAR KHSI 012053Z AUTO 32006KT 10SM BKN120 23/14 A2993 RMK AO2 RAB08E18 SLP123 P0000 60000 T02280139 56004

More Conditions Fewer Conditions

Pressure 29.90 in
Visibility 10.0 miles
Clouds Mostly Cloudy 12000 ft
Heat Index 75 °F
Dew Point 60 °F
Humidity 66%
Rainfall 0.00 in
Snow Depth Not available.
UV 4 out of 12
Pollen 8.20 out of 12
Air Quality Not available.
Flu Activity Not available.
METAR KHSI 012053Z AUTO 32006KT 10SM BKN120 23/14 A2993 RMK AO2 RAB08E18 SLP123 P0000 60000 T02280139 56004

More Conditions Fewer Conditions

10-Day Weather Forecast

Almanac

Astronomy

Sep. 01, 2014 Rise Set
Actual Time 7:00 AM CDT 8:05 PM CDT
Civil Twilight 6:32 AM CDT 8:33 PM CDT
Nautical Twilight 5:59 AM CDT 9:07 PM CDT
Astronomical Twilight 5:24 AM CDT 9:41 PM CDT
Moon 1:49 PM CDT No Moon Set
Length of Visible Light 14h 00m
Length of Day
13h 04m
Tomorrow will be 2m 36s shorter.
Waxing Crescent, 44% of the Moon is Illuminated
Today
Waxing Crescent
Sep 2
First Quarter
Sep 8
Full
Sep 15
Last Quarter
Sep 24
New

Today's Extremes

State Highs State Lows

Community

WunderPhotos

Upload Photos

1,749,417 photos uploaded!

Nearby

Snow Depth

Station Depth Elevation
No new snow has been reported.

Earthquake Activity

City Distance Mag. Time & Date
No recent earthquake activity has been reported nearby.
Minimum magnitude displayed is 2.5.

Coastal Water Temperatures

Place Temperature
No Stations Reporting

Nearby Weather Stations